Time;durP1;ratioP1;P1;durP2;ratioP2;P2;SDS_P1;SDS_P2;PMS_P1;PMS_P2;Temp;Humidity;BMP_temperature;BMP_pressure;BME280_temperature;BME280_humidity;BME280_pressure;Samples;Min_cycle;Max_cycle;Signal;HPM_P1;HPM_P2
2023/04/20 04:02:40;;;;;;;3.30;1.20;;;5.90;99.90;;;;;;4953806;29;20356;-69
2023/04/20 04:05:07;;;;;;;2.38;2.25;;;5.90;99.90;;;;;;4954613;28;20205;-69
2023/04/20 04:07:34;;;;;;;3.42;1.27;;;5.90;99.90;;;;;;4955299;28;20215;-69
2023/04/20 04:10:03;;;;;;;1.90;1.70;;;5.90;99.90;;;;;;4954846;28;20216;-69
2023/04/20 04:12:30;;;;;;;0.75;0.75;;;6.00;99.90;;;;;;4954700;28;20697;-69
2023/04/20 04:14:57;;;;;;;4.57;1.95;;;6.00;99.90;;;;;;4954628;28;20653;-73
2023/04/20 04:17:23;;;;;;;1.20;0.75;;;6.00;99.90;;;;;;4955068;28;20220;-72
2023/04/20 04:19:51;;;;;;;3.97;1.35;;;6.00;99.90;;;;;;4955172;28;20213;-72
2023/04/20 04:22:18;;;;;;;0.73;0.73;;;6.00;99.90;;;;;;4955042;28;20229;-74
2023/04/20 04:24:45;;;;;;;2.78;1.55;;;6.00;99.90;;;;;;4954663;28;20217;-72
2023/04/20 04:27:14;;;;;;;5.35;1.55;;;6.00;99.90;;;;;;4953381;28;20240;-73
2023/04/20 04:29:41;;;;;;;0.82;0.82;;;6.00;99.90;;;;;;4954591;28;20665;-74
2023/04/20 04:32:08;;;;;;;0.68;0.65;;;6.00;99.90;;;;;;4955078;28;20706;-74
2023/04/20 04:34:35;;;;;;;1.38;1.38;;;6.00;99.90;;;;;;4950573;28;20205;-71
2023/04/20 04:37:03;;;;;;;1.05;1.05;;;6.00;99.90;;;;;;4955151;28;20197;-73
2023/04/20 04:39:30;;;;;;;3.45;2.63;;;6.00;99.90;;;;;;4954832;28;20210;-73
2023/04/20 04:41:57;;;;;;;1.25;1.25;;;6.00;99.90;;;;;;4954214;28;20627;-74
2023/04/20 04:44:24;;;;;;;0.85;0.85;;;6.00;99.90;;;;;;4954144;28;20245;-73
2023/04/20 04:46:53;;;;;;;1.45;1.30;;;6.00;99.90;;;;;;4954251;28;20891;-74
2023/04/20 04:49:20;;;;;;;3.78;1.45;;;6.00;99.90;;;;;;4954481;28;20342;-73
2023/04/20 04:51:47;;;;;;;1.40;1.00;;;6.00;99.90;;;;;;4954254;28;20735;-73
2023/04/20 04:54:15;;;;;;;0.60;0.60;;;6.00;99.90;;;;;;4954969;28;20213;-73
2023/04/20 04:56:41;;;;;;;3.80;0.93;;;6.00;99.90;;;;;;4954085;28;20659;-73
2023/04/20 04:59:08;;;;;;;2.00;1.08;;;6.00;99.90;;;;;;4955075;28;20213;-73
2023/04/20 05:01:35;;;;;;;5.45;2.15;;;6.00;99.90;;;;;;4953959;28;20617;-73
2023/04/20 05:04:02;;;;;;;2.85;1.40;;;6.00;99.90;;;;;;4954355;28;20570;-73
2023/04/20 05:06:28;;;;;;;1.63;1.52;;;6.00;99.90;;;;;;4954516;28;20239;-72
2023/04/20 05:08:55;;;;;;;2.33;2.13;;;6.10;99.90;;;;;;4954579;28;20217;-72
2023/04/20 05:11:23;;;;;;;1.05;1.05;;;6.10;99.90;;;;;;4954493;28;20462;-74
2023/04/20 05:13:50;;;;;;;1.15;1.15;;;6.10;99.90;;;;;;4953568;28;20474;-73
2023/04/20 05:16:17;;;;;;;1.88;1.77;;;6.10;99.90;;;;;;4954146;28;20224;-74
2023/04/20 05:18:43;;;;;;;0.93;0.93;;;6.10;99.90;;;;;;4954785;28;20217;-73
2023/04/20 05:21:10;;;;;;;1.50;1.50;;;6.10;99.90;;;;;;4955284;28;20251;-73
2023/04/20 05:23:37;;;;;;;6.68;1.25;;;6.20;99.90;;;;;;4956501;28;20667;-74
2023/04/20 05:26:04;;;;;;;0.90;0.90;;;6.20;99.90;;;;;;4961050;28;20233;-73
2023/04/20 05:28:33;;;;;;;1.55;1.55;;;6.20;99.90;;;;;;4955300;28;20209;-71
2023/04/20 05:31:00;;;;;;;7.40;1.60;;;6.20;99.90;;;;;;4955974;28;20229;-73
2023/04/20 05:33:27;;;;;;;1.27;1.25;;;6.20;99.90;;;;;;4955439;28;20209;-72
2023/04/20 05:35:56;;;;;;;2.05;1.88;;;6.20;99.90;;;;;;4955739;28;20220;-72
2023/04/20 05:38:23;;;;;;;2.45;2.33;;;6.30;99.90;;;;;;4956546;28;20753;-71
2023/04/20 05:40:50;;;;;;;2.67;1.83;;;6.30;99.90;;;;;;4956519;28;20233;-72
2023/04/20 05:43:18;;;;;;;3.40;1.95;;;6.30;99.90;;;;;;4954761;28;20372;-70
2023/04/20 05:45:46;;;;;;;1.60;1.60;;;6.30;99.90;;;;;;4955946;28;20725;-73
2023/04/20 05:48:13;;;;;;;2.03;2.03;;;6.30;99.90;;;;;;4956059;28;20213;-73
2023/04/20 05:50:39;;;;;;;2.35;1.95;;;6.30;99.90;;;;;;4955598;28;20236;-72
2023/04/20 05:53:06;;;;;;;1.85;1.85;;;6.30;99.90;;;;;;4956091;28;20232;-73
2023/04/20 05:55:33;;;;;;;4.38;1.58;;;6.40;99.90;;;;;;4955598;28;20213;-73
2023/04/20 05:58:00;;;;;;;4.65;2.58;;;6.40;99.90;;;;;;4961879;28;20553;-73
2023/04/20 06:00:26;;;;;;;2.28;2.28;;;6.40;99.90;;;;;;4963880;28;20209;-74
2023/04/20 06:02:54;;;;;;;1.33;1.33;;;6.50;99.90;;;;;;4963580;28;20213;-71
2023/04/20 06:05:21;;;;;;;1.77;1.77;;;6.50;99.90;;;;;;4963407;28;20213;-71
2023/04/20 06:07:48;;;;;;;11.32;2.65;;;6.50;99.90;;;;;;4964691;28;20225;-72
2023/04/20 06:10:15;;;;;;;1.27;1.17;;;6.50;99.90;;;;;;4966900;28;20302;-73
2023/04/20 06:12:41;;;;;;;2.22;2.05;;;6.50;99.90;;;;;;4963280;28;20204;-71
2023/04/20 06:15:09;;;;;;;2.47;2.38;;;6.50;99.90;;;;;;4959404;28;20596;-72
2023/04/20 06:17:39;;;;;;;1.23;1.23;;;6.50;99.90;;;;;;4958150;28;20302;-72
2023/04/20 06:20:09;;;;;;;3.80;2.40;;;6.60;99.90;;;;;;4958206;28;20268;-73
2023/04/20 06:22:36;;;;;;;6.53;2.55;;;6.60;99.90;;;;;;4957985;28;20235;-73
2023/04/20 06:25:03;;;;;;;1.70;1.60;;;6.60;99.90;;;;;;4958069;28;20212;-72
2023/04/20 06:27:30;;;;;;;2.65;1.65;;;6.60;99.90;;;;;;4956925;28;20659;-70
2023/04/20 06:29:56;;;;;;;2.25;2.05;;;6.60;99.90;;;;;;4956726;28;20209;-72
2023/04/20 06:32:23;;;;;;;1.38;1.25;;;6.60;99.90;;;;;;4957456;28;20233;-73
2023/04/20 06:34:51;;;;;;;2.10;1.90;;;6.70;99.90;;;;;;4957067;28;20205;-71
2023/04/20 06:37:19;;;;;;;5.22;4.10;;;6.70;99.90;;;;;;4958222;28;20558;-73
2023/04/20 06:39:46;;;;;;;2.38;2.10;;;6.70;99.90;;;;;;4957688;28;20224;-73
2023/04/20 06:42:14;;;;;;;1.35;1.23;;;6.70;99.90;;;;;;4956441;28;20239;-72
2023/04/20 06:44:41;;;;;;;2.55;2.05;;;6.70;99.90;;;;;;4956488;28;20228;-72
2023/04/20 06:47:08;;;;;;;2.05;1.90;;;6.80;99.90;;;;;;4957505;28;20255;-72
2023/04/20 06:49:36;;;;;;;1.38;1.27;;;6.80;99.90;;;;;;4956347;28;20236;-70
2023/04/20 06:52:03;;;;;;;1.90;1.73;;;6.80;99.90;;;;;;4968388;28;20255;-71
2023/04/20 06:54:31;;;;;;;8.80;3.03;;;6.90;99.90;;;;;;4957454;28;20311;-73
2023/04/20 06:56:58;;;;;;;5.60;3.22;;;6.90;99.90;;;;;;4956475;28;20216;-73
2023/04/20 06:59:25;;;;;;;4.22;1.15;;;6.90;99.90;;;;;;4956729;28;20209;-72
2023/04/20 07:01:52;;;;;;;1.35;1.25;;;6.90;99.90;;;;;;4956596;28;20251;-72
2023/04/20 07:04:18;;;;;;;2.25;1.42;;;7.00;99.90;;;;;;4956781;28;20209;-73
2023/04/20 07:06:45;;;;;;;12.20;2.88;;;7.00;99.90;;;;;;4956962;28;20229;-72
2023/04/20 07:09:12;;;;;;;4.38;2.58;;;7.10;99.90;;;;;;4957071;28;20205;-72
2023/04/20 07:11:40;;;;;;;1.75;1.73;;;7.00;99.90;;;;;;4956070;28;20721;-72
2023/04/20 07:14:07;;;;;;;7.13;2.75;;;7.00;99.90;;;;;;4956498;28;20213;-73
2023/04/20 07:16:33;;;;;;;4.15;1.80;;;7.10;99.90;;;;;;4956287;28;20232;-73
2023/04/20 07:19:00;;;;;;;2.95;2.70;;;7.00;99.90;;;;;;4956583;28;20205;-73
2023/04/20 07:21:27;;;;;;;1.58;1.58;;;7.10;99.90;;;;;;4956966;28;20236;-73
2023/04/20 07:23:55;;;;;;;2.22;1.23;;;7.10;99.90;;;;;;4955998;28;20652;-72
2023/04/20 07:26:22;;;;;;;1.95;1.95;;;7.10;99.90;;;;;;4956565;28;20205;-72
2023/04/20 07:28:50;;;;;;;2.00;2.00;;;7.10;99.90;;;;;;4956252;28;20209;-72
2023/04/20 07:31:17;;;;;;;3.17;2.20;;;7.20;99.90;;;;;;4956255;28;20236;-73
2023/04/20 07:33:44;;;;;;;1.50;1.50;;;7.10;99.90;;;;;;4955574;28;20220;-73
2023/04/20 07:36:11;;;;;;;3.05;2.92;;;7.10;99.90;;;;;;4956186;28;20248;-74
2023/04/20 07:38:38;;;;;;;2.28;2.17;;;7.20;99.90;;;;;;4956152;28;20304;-72
2023/04/20 07:41:08;;;;;;;2.22;1.88;;;7.20;99.90;;;;;;4956554;28;20225;-73
2023/04/20 07:43:34;;;;;;;2.10;1.90;;;7.20;99.90;;;;;;4964065;28;20300;-71
2023/04/20 07:46:02;;;;;;;1.75;1.70;;;7.20;99.90;;;;;;4968869;28;20214;-74
2023/04/20 07:48:30;;;;;;;8.05;2.00;;;7.20;99.90;;;;;;4969028;28;20232;-72
2023/04/20 07:50:57;;;;;;;2.38;2.28;;;7.20;99.90;;;;;;4957520;28;20229;-73
2023/04/20 07:53:24;;;;;;;2.80;2.60;;;7.30;99.90;;;;;;4956342;28;20573;-74
2023/04/20 07:55:50;;;;;;;1.63;1.60;;;7.30;99.90;;;;;;4957781;28;20320;-71
2023/04/20 07:58:17;;;;;;;2.08;1.92;;;7.30;99.90;;;;;;4971971;28;20216;-72
2023/04/20 08:00:46;;;;;;;3.25;2.65;;;7.30;99.90;;;;;;4971589;28;20288;-73
2023/04/20 08:03:14;;;;;;;2.60;2.28;;;7.30;99.90;;;;;;4970578;28;20252;-72
2023/04/20 08:05:41;;;;;;;1.92;1.83;;;7.30;99.90;;;;;;4971317;28;20209;-71
2023/04/20 08:08:08;;;;;;;3.25;3.05;;;7.30;99.90;;;;;;4972387;28;20296;-73
2023/04/20 08:10:34;;;;;;;2.13;2.03;;;7.40;99.90;;;;;;4972350;28;20239;-72
2023/04/20 08:13:01;;;;;;;2.70;2.50;;;7.40;99.90;;;;;;4973548;28;20208;-71
2023/04/20 08:15:28;;;;;;;2.50;2.35;;;7.40;99.90;;;;;;4972431;28;20320;-71
2023/04/20 08:17:55;;;;;;;3.33;2.65;;;7.40;99.90;;;;;;4972160;28;20311;-71
2023/04/20 08:20:23;;;;;;;3.17;2.53;;;7.40;99.90;;;;;;4964218;28;20206;-73
2023/04/20 08:22:49;;;;;;;2.75;2.65;;;7.40;99.90;;;;;;4959774;28;20216;-73
2023/04/20 08:25:16;;;;;;;1.83;1.83;;;7.40;99.90;;;;;;4959018;28;20327;-73
2023/04/20 08:27:43;;;;;;;3.25;3.05;;;7.50;99.90;;;;;;4960847;28;20226;-72
2023/04/20 08:30:11;;;;;;;3.22;2.40;;;7.50;99.90;;;;;;4957261;28;20213;-73
2023/04/20 08:32:39;;;;;;;5.22;3.25;;;7.50;99.90;;;;;;4955985;28;20213;-72
2023/04/20 08:35:07;;;;;;;4.50;3.25;;;7.50;99.90;;;;;;4952108;28;20209;-72
2023/04/20 08:37:36;;;;;;;3.67;3.47;;;7.50;99.90;;;;;;4940441;28;20300;-73
2023/04/20 08:40:03;;;;;;;7.10;3.65;;;7.50;99.90;;;;;;4938640;29;20213;-73
2023/04/20 08:42:31;;;;;;;3.80;3.60;;;7.50;99.90;;;;;;4936495;29;20240;-70
2023/04/20 08:44:58;;;;;;;2.13;2.03;;;7.50;99.90;;;;;;4935154;29;20209;-73
2023/04/20 08:47:27;;;;;;;3.70;3.40;;;7.50;99.90;;;;;;4936027;29;20265;-73
2023/04/20 08:49:54;;;;;;;3.35;1.75;;;7.60;99.90;;;;;;4936151;29;20642;-73
2023/04/20 08:52:21;;;;;;;2.83;2.47;;;7.60;99.90;;;;;;4936780;29;20234;-73
2023/04/20 08:54:49;;;;;;;2.00;1.90;;;7.60;99.90;;;;;;4936546;29;20205;-73
2023/04/20 08:57:16;;;;;;;3.20;1.35;;;7.60;99.90;;;;;;4936998;29;20205;-70
2023/04/20 08:59:43;;;;;;;7.20;2.20;;;7.70;99.90;;;;;;4937064;29;20300;-71
2023/04/20 09:02:11;;;;;;;2.72;2.53;;;7.70;99.90;;;;;;4935243;29;20238;-71
2023/04/20 09:04:38;;;;;;;4.07;3.17;;;7.80;99.90;;;;;;4934909;29;20245;-71
2023/04/20 09:07:06;;;;;;;4.32;3.80;;;7.90;99.90;;;;;;4935278;29;20245;-71
2023/04/20 09:09:33;;;;;;;2.63;2.38;;;7.90;99.90;;;;;;4935401;29;20221;-71
2023/04/20 09:12:02;;;;;;;4.18;3.88;;;8.00;99.90;;;;;;4934888;29;20245;-71
2023/04/20 09:14:29;;;;;;;4.05;3.75;;;8.00;99.90;;;;;;4934300;29;20214;-70
2023/04/20 09:17:00;;;;;;;2.85;2.65;;;8.10;99.90;;;;;;4934624;29;20307;-70
2023/04/20 09:19:29;;;;;;;3.58;3.05;;;8.20;99.90;;;;;;4935429;29;20214;-71
2023/04/20 09:21:58;;;;;;;2.30;2.08;;;8.20;99.90;;;;;;4934906;29;20333;-71
2023/04/20 09:24:31;;;;;;;3.47;3.17;;;8.20;99.90;;;;;;4934367;29;20305;-71
2023/04/20 09:26:58;;;;;;;2.67;2.53;;;8.20;99.90;;;;;;4934323;29;20237;-72
2023/04/20 09:29:26;;;;;;;2.55;2.40;;;8.20;99.90;;;;;;4934702;29;20249;-70
2023/04/20 09:31:54;;;;;;;3.42;2.55;;;8.20;99.90;;;;;;4934400;29;20230;-72
2023/04/20 09:34:21;;;;;;;4.20;3.55;;;8.20;99.90;;;;;;4943729;29;20296;-73
2023/04/20 09:36:50;;;;;;;4.15;3.80;;;8.30;99.90;;;;;;4953558;28;20205;-73
2023/04/20 09:39:19;;;;;;;7.60;3.47;;;8.30;99.90;;;;;;4953719;28;20633;-72
2023/04/20 09:41:46;;;;;;;3.40;3.17;;;8.40;99.90;;;;;;4952669;28;20240;-72
2023/04/20 09:44:15;;;;;;;4.20;2.60;;;8.40;99.90;;;;;;4952944;28;20285;-72
2023/04/20 09:46:44;;;;;;;3.00;2.90;;;8.40;99.90;;;;;;4953521;28;20205;-72
2023/04/20 09:49:12;;;;;;;6.22;3.28;;;8.40;99.90;;;;;;4953397;28;20225;-72
2023/04/20 09:51:43;;;;;;;2.88;2.67;;;8.50;99.90;;;;;;4953246;28;20568;-73
2023/04/20 09:54:10;;;;;;;2.58;1.83;;;8.50;99.90;;;;;;4952528;28;20556;-73
2023/04/20 09:56:38;;;;;;;3.85;3.55;;;8.50;99.90;;;;;;4952507;28;20220;-69
2023/04/20 09:59:06;;;;;;;4.40;3.97;;;8.60;99.90;;;;;;4952830;28;20208;-71
2023/04/20 10:01:34;;;;;;;5.15;3.33;;;8.70;99.90;;;;;;4952127;28;20244;-71
2023/04/20 10:04:06;;;;;;;1.42;1.42;;;8.80;99.90;;;;;;4952334;28;20300;-72
2023/04/20 10:06:34;;;;;;;4.35;4.07;;;8.80;99.90;;;;;;4952721;28;20213;-72
2023/04/20 10:09:02;;;;;;;4.40;4.10;;;8.80;99.90;;;;;;4953202;28;20570;-73
2023/04/20 10:11:31;;;;;;;4.50;3.88;;;8.90;99.90;;;;;;4952576;28;20240;-73
2023/04/20 10:14:00;;;;;;;3.85;3.50;;;9.00;99.90;;;;;;4952116;28;20217;-73
2023/04/20 10:16:27;;;;;;;3.90;3.05;;;9.20;99.90;;;;;;5024924;23;20243;-70
2023/04/20 10:18:59;;;;;;;2.80;2.65;;;9.40;99.90;;;;;;5011208;28;20531;-69
2023/04/20 10:21:28;;;;;;;4.75;3.15;;;9.50;99.90;;;;;;5011334;28;20210;-71
2023/04/20 10:23:55;;;;;;;3.28;3.03;;;9.70;99.90;;;;;;5010485;28;20551;-70
2023/04/20 10:26:22;;;;;;;3.70;3.47;;;9.80;99.90;;;;;;5009850;28;20253;-70
2023/04/20 10:28:49;;;;;;;3.85;3.58;;;9.90;99.90;;;;;;5010211;28;20226;-70
2023/04/20 10:31:16;;;;;;;4.68;2.38;;;10.00;99.90;;;;;;5010217;28;20302;-70
2023/04/20 10:33:53;;;;;;;7.70;3.38;;;10.10;99.90;;;;;;5006279;28;20574;-70
2023/04/20 10:36:29;;;;;;;7.60;3.35;;;10.10;99.90;;;;;;5010562;28;20226;-70
2023/04/20 10:38:57;;;;;;;1.75;1.60;;;10.10;99.90;;;;;;5010840;28;20252;-71
2023/04/20 10:41:24;;;;;;;3.70;3.10;;;10.10;99.90;;;;;;5010943;28;20261;-70
2023/04/20 10:43:51;;;;;;;3.70;3.50;;;10.00;99.90;;;;;;5010055;28;20207;-69
2023/04/20 10:46:19;;;;;;;3.00;2.80;;;10.00;99.90;;;;;;5011062;28;20230;-70
2023/04/20 10:48:53;;;;;;;1.85;1.75;;;10.00;99.90;;;;;;5010812;28;20702;-70
2023/04/20 10:51:20;;;;;;;3.72;2.15;;;9.90;99.90;;;;;;5011408;28;20214;-69
2023/04/20 10:53:58;;;;;;;3.50;3.30;;;9.90;99.90;;;;;;5010130;28;20217;-70
2023/04/20 10:56:25;;;;;;;12.35;3.78;;;9.80;99.90;;;;;;5010000;28;20234;-70
2023/04/20 10:58:52;;;;;;;2.90;2.70;;;9.80;99.90;;;;;;5010137;28;20207;-70
2023/04/20 11:01:19;;;;;;;2.15;1.90;;;9.80;99.90;;;;;;5010175;28;20207;-71
2023/04/20 11:03:50;;;;;;;4.38;2.10;;;9.80;99.90;;;;;;5009990;28;20702;-70
2023/04/20 11:06:17;;;;;;;2.83;2.72;;;10.00;99.90;;;;;;5010467;28;20231;-70
2023/04/20 11:08:43;;;;;;;2.28;2.17;;;10.00;99.90;;;;;;5010779;28;20230;-70
2023/04/20 11:11:23;;;;;;;2.85;2.20;;;10.10;99.90;;;;;;5010435;28;20217;-70
2023/04/20 11:13:50;;;;;;;2.20;2.20;;;10.10;99.90;;;;;;5009887;28;20211;-70
2023/04/20 11:16:18;;;;;;;4.05;3.85;;;10.20;99.90;;;;;;5009770;28;20242;-70
2023/04/20 11:18:52;;;;;;;3.65;3.38;;;10.30;99.90;;;;;;5010430;28;20207;-70
2023/04/20 11:21:20;;;;;;;2.58;2.38;;;10.30;99.90;;;;;;5010199;28;20207;-69
2023/04/20 11:23:47;;;;;;;3.72;3.42;;;10.30;99.90;;;;;;5009706;28;20310;-70
2023/04/20 11:26:14;;;;;;;1.95;1.83;;;10.30;99.90;;;;;;5010826;28;20230;-70
2023/04/20 11:28:52;;;;;;;2.70;2.60;;;10.20;99.90;;;;;;5010302;28;20348;-70
2023/04/20 11:31:19;;;;;;;2.35;2.25;;;10.20;99.90;;;;;;5010130;28;20563;-69
2023/04/20 11:33:46;;;;;;;1.95;1.85;;;10.10;99.90;;;;;;5005804;28;20214;-70
2023/04/20 11:36:19;;;;;;;1.88;1.77;;;10.10;99.90;;;;;;5010563;28;20318;-70
2023/04/20 11:38:46;;;;;;;2.65;2.20;;;10.10;99.90;;;;;;5013838;28;20203;-69
2023/04/20 11:41:12;;;;;;;3.25;3.15;;;10.20;99.90;;;;;;5013960;28;20222;-70
2023/04/20 11:43:40;;;;;;;4.75;2.28;;;10.20;99.90;;;;;;5012966;28;20215;-70
2023/04/20 11:46:15;;;;;;;3.25;2.97;;;10.20;99.90;;;;;;5013471;28;20700;-70
2023/04/20 11:48:42;;;;;;;3.10;2.45;;;10.10;99.90;;;;;;5013687;28;20702;-70
2023/04/20 11:51:09;;;;;;;2.95;2.10;;;10.10;99.90;;;;;;5013404;28;20211;-71
2023/04/20 11:53:36;;;;;;;2.03;1.92;;;10.10;99.90;;;;;;5013197;28;20207;-70
2023/04/20 11:56:03;;;;;;;2.40;1.60;;;10.10;99.90;;;;;;5013484;28;20227;-70
2023/04/20 11:58:30;;;;;;;5.45;2.47;;;10.10;99.90;;;;;;5013331;28;20199;-70
2023/04/20 12:00:56;;;;;;;3.28;3.03;;;10.10;99.90;;;;;;5012961;28;20671;-70
2023/04/20 12:03:25;;;;;;;2.85;2.75;;;10.10;99.90;;;;;;5012881;28;20287;-71
2023/04/20 12:05:51;;;;;;;2.92;1.67;;;10.10;99.90;;;;;;5013448;28;20296;-70
2023/04/20 12:08:18;;;;;;;1.70;1.60;;;10.20;99.90;;;;;;5013784;28;20230;-71
2023/04/20 12:10:46;;;;;;;2.53;2.42;;;10.10;99.90;;;;;;5013583;28;20207;-71
2023/04/20 12:13:13;;;;;;;4.18;2.03;;;10.10;99.90;;;;;;5013307;28;20207;-71
2023/04/20 12:15:40;;;;;;;3.03;2.83;;;10.10;99.90;;;;;;5012613;28;20731;-71
2023/04/20 12:18:07;;;;;;;1.98;1.95;;;10.10;99.90;;;;;;5013479;28;20210;-71
2023/04/20 12:20:35;;;;;;;1.67;1.58;;;10.10;99.90;;;;;;5013625;28;20207;-70
2023/04/20 12:23:02;;;;;;;1.63;1.52;;;10.00;99.90;;;;;;5013480;28;20207;-70
2023/04/20 12:25:29;;;;;;;3.35;3.10;;;9.90;99.90;;;;;;5012835;28;20694;-70
2023/04/20 12:27:55;;;;;;;1.65;1.60;;;9.90;99.90;;;;;;5012800;28;20207;-70
2023/04/20 12:30:22;;;;;;;1.65;1.55;;;9.80;99.90;;;;;;5012998;28;20207;-71
2023/04/20 12:32:49;;;;;;;4.40;3.15;;;9.80;99.90;;;;;;5011983;28;20679;-71
2023/04/20 12:35:16;;;;;;;3.25;3.05;;;9.80;99.90;;;;;;5010005;28;20219;-70
2023/04/20 12:37:44;;;;;;;2.63;1.60;;;9.80;99.90;;;;;;5013388;28;20213;-71
2023/04/20 12:40:11;;;;;;;3.22;2.92;;;9.70;99.90;;;;;;5013335;28;20668;-70
2023/04/20 12:42:38;;;;;;;3.45;2.60;;;9.70;99.90;;;;;;5012696;28;20210;-70
2023/04/20 12:45:05;;;;;;;5.53;3.88;;;9.70;99.90;;;;;;5011900;28;20596;-70
2023/04/20 12:47:32;;;;;;;3.03;2.83;;;9.60;99.90;;;;;;5012648;28;20206;-71
2023/04/20 12:49:58;;;;;;;5.55;2.83;;;9.60;99.90;;;;;;5012836;28;20240;-70
2023/04/20 12:52:25;;;;;;;2.78;2.58;;;9.60;99.90;;;;;;5012362;28;20299;-69
2023/04/20 12:54:53;;;;;;;2.20;2.03;;;9.60;99.90;;;;;;5012058;28;20234;-70
2023/04/20 12:57:20;;;;;;;3.13;2.83;;;9.60;99.90;;;;;;5012112;28;20548;-71
2023/04/20 12:59:47;;;;;;;3.97;3.67;;;9.50;99.90;;;;;;5011584;28;20206;-70
2023/04/20 13:02:14;;;;;;;4.22;2.97;;;9.50;99.90;;;;;;5012555;28;20203;-70
2023/04/20 13:04:40;;;;;;;10.75;4.00;;;9.40;99.90;;;;;;5011765;28;20203;-70
2023/04/20 13:07:07;;;;;;;3.58;3.13;;;9.40;99.90;;;;;;5012213;28;20199;-70
2023/04/20 13:09:34;;;;;;;3.05;2.60;;;9.40;99.90;;;;;;5012078;28;20254;-70
2023/04/20 13:12:02;;;;;;;7.35;2.78;;;9.40;99.90;;;;;;5011605;28;20226;-70
2023/04/20 13:14:29;;;;;;;3.70;3.33;;;9.40;99.90;;;;;;5011787;28;20664;-70
2023/04/20 13:16:56;;;;;;;7.25;4.00;;;9.50;99.90;;;;;;5011723;28;20294;-70
2023/04/20 13:19:22;;;;;;;3.38;2.88;;;9.70;99.90;;;;;;5012084;28;20207;-70
2023/04/20 13:21:49;;;;;;;3.47;3.17;;;9.80;99.90;;;;;;5011771;28;20261;-70
2023/04/20 13:24:16;;;;;;;3.95;2.92;;;9.80;99.90;;;;;;5011527;28;20313;-70
2023/04/20 13:26:43;;;;;;;4.18;3.88;;;9.90;99.90;;;;;;5011038;28;20223;-70
2023/04/20 13:29:11;;;;;;;3.72;3.35;;;9.90;99.90;;;;;;5011950;28;20234;-70
2023/04/20 13:31:39;;;;;;;4.45;4.05;;;9.90;99.90;;;;;;5011242;28;20253;-70
2023/04/20 13:34:06;;;;;;;2.10;1.98;;;9.90;99.90;;;;;;5007231;28;20694;-70
2023/04/20 13:36:32;;;;;;;4.03;3.70;;;9.90;99.90;;;;;;5011497;28;20563;-70
2023/04/20 13:39:02;;;;;;;2.80;2.38;;;9.90;99.90;;;;;;5011516;28;20199;-70
2023/04/20 13:41:29;;;;;;;6.70;3.90;;;10.00;99.90;;;;;;5011356;28;20211;-70
2023/04/20 13:43:57;;;;;;;4.75;4.30;;;10.10;99.90;;;;;;5010615;28;20359;-70
2023/04/20 13:46:25;;;;;;;3.47;3.28;;;10.20;99.90;;;;;;5010971;28;20266;-70
2023/04/20 13:48:52;;;;;;;4.55;4.10;;;10.40;99.90;;;;;;5011501;28;20569;-70
2023/04/20 13:51:19;;;;;;;3.60;3.40;;;10.40;99.90;;;;;;5011240;28;20232;-70
2023/04/20 13:53:47;;;;;;;9.48;4.30;;;10.40;99.90;;;;;;5010870;28;20203;-70
2023/04/20 13:56:15;;;;;;;4.93;3.20;;;10.50;99.90;;;;;;5011770;28;20270;-70
2023/04/20 13:58:41;;;;;;;3.80;3.45;;;10.60;99.90;;;;;;5010964;28;20278;-70
2023/04/20 14:01:08;;;;;;;2.83;2.70;;;10.70;99.90;;;;;;5010865;28;20217;-70
2023/04/20 14:03:36;;;;;;;5.45;3.92;;;10.70;99.90;;;;;;5010522;28;20684;-71
2023/04/20 14:06:03;;;;;;;7.30;3.22;;;10.70;99.90;;;;;;5011266;28;20231;-70
2023/04/20 14:08:30;;;;;;;3.80;3.30;;;10.80;99.90;;;;;;5010936;28;20639;-70
2023/04/20 14:10:57;;;;;;;4.15;3.75;;;10.80;99.90;;;;;;5011316;28;20207;-70
2023/04/20 14:13:24;;;;;;;4.22;3.25;;;11.00;99.90;;;;;;5010234;28;20226;-70
2023/04/20 14:15:51;;;;;;;3.05;2.80;;;11.00;99.90;;;;;;5010485;28;20250;-70
2023/04/20 14:18:18;;;;;;;3.15;3.05;;;11.00;99.90;;;;;;5011242;28;20218;-70
2023/04/20 14:20:48;;;;;;;3.60;3.47;;;11.10;99.90;;;;;;5010821;28;20687;-71
2023/04/20 14:23:15;;;;;;;6.93;3.72;;;11.10;99.90;;;;;;5010450;28;20532;-70
2023/04/20 14:25:42;;;;;;;5.35;4.40;;;11.10;99.90;;;;;;5010766;28;20228;-71
2023/04/20 14:28:08;;;;;;;3.22;3.03;;;11.20;99.90;;;;;;5010810;28;20222;-71
2023/04/20 14:30:35;;;;;;;5.43;4.95;;;11.20;99.90;;;;;;5010558;28;20223;-70
2023/04/20 14:33:02;;;;;;;4.88;4.05;;;11.20;99.90;;;;;;5007961;28;21303;-70
2023/04/20 14:35:29;;;;;;;4.93;3.55;;;11.30;99.90;;;;;;5009023;28;20318;-71
2023/04/20 14:37:57;;;;;;;7.72;4.32;;;11.30;99.90;;;;;;5010886;28;20294;-70
2023/04/20 14:40:24;;;;;;;3.78;3.47;;;11.20;99.90;;;;;;5010582;28;20218;-70
2023/04/20 14:42:51;;;;;;;3.17;2.90;;;11.20;99.90;;;;;;5010507;28;20313;-70
2023/04/20 14:45:18;;;;;;;4.10;3.80;;;11.20;99.90;;;;;;5009600;28;20223;-71
2023/04/20 14:47:44;;;;;;;4.72;4.32;;;11.20;99.90;;;;;;5010726;28;20202;-70
2023/04/20 14:50:11;;;;;;;5.82;3.80;;;11.20;99.90;;;;;;5010462;28;20226;-71
2023/04/20 14:52:38;;;;;;;3.90;3.60;;;11.30;99.90;;;;;;5010709;28;20211;-70
2023/04/20 14:55:07;;;;;;;5.53;4.60;;;11.30;99.90;;;;;;5010067;28;20235;-71
2023/04/20 14:57:34;;;;;;;5.07;3.72;;;11.30;99.90;;;;;;5009975;28;20211;-71
2023/04/20 15:00:00;;;;;;;8.73;4.25;;;11.30;99.90;;;;;;5010349;28;20208;-70
2023/04/20 15:02:27;;;;;;;7.13;4.40;;;11.40;99.90;;;;;;5010527;28;20211;-70
2023/04/20 15:04:54;;;;;;;4.15;3.75;;;11.30;99.90;;;;;;5009624;28;20684;-71
2023/04/20 15:07:20;;;;;;;4.80;4.20;;;11.40;99.90;;;;;;5010670;28;20211;-71
2023/04/20 15:09:47;;;;;;;5.47;4.32;;;11.50;99.90;;;;;;5010484;28;20227;-70
2023/04/20 15:12:15;;;;;;;3.70;3.50;;;11.40;99.90;;;;;;5012428;28;20581;-70
2023/04/20 15:14:42;;;;;;;6.38;3.83;;;11.40;99.90;;;;;;5013087;28;20211;-71
2023/04/20 15:17:10;;;;;;;9.63;5.07;;;11.40;99.90;;;;;;5014745;28;20207;-70
2023/04/20 15:19:37;;;;;;;8.85;4.30;;;11.50;99.90;;;;;;5014269;28;20199;-70
2023/04/20 15:22:03;;;;;;;3.50;3.20;;;11.50;99.90;;;;;;5014328;28;20321;-71
2023/04/20 15:24:31;;;;;;;8.35;5.90;;;11.50;99.90;;;;;;5013799;28;20234;-70
2023/04/20 15:26:58;;;;;;;4.63;4.18;;;11.60;99.90;;;;;;5013747;28;20381;-70
2023/04/20 15:29:26;;;;;;;11.23;5.82;;;11.60;99.90;;;;;;5014309;28;20219;-70
2023/04/20 15:31:53;;;;;;;5.68;5.22;;;11.60;99.90;;;;;;5013416;28;20211;-70
2023/04/20 15:34:20;;;;;;;5.43;3.97;;;11.70;99.90;;;;;;5009460;28;20218;-70
2023/04/20 15:36:47;;;;;;;6.00;4.60;;;11.70;99.90;;;;;;5013717;28;20486;-70
2023/04/20 15:39:14;;;;;;;5.67;4.93;;;11.80;99.90;;;;;;5013955;28;20937;-70
2023/04/20 15:41:40;;;;;;;9.10;4.37;;;11.90;99.90;;;;;;5013716;28;20474;-71
2023/04/20 15:44:07;;;;;;;5.67;5.17;;;11.90;99.90;;;;;;5013792;28;20533;-70
2023/04/20 15:46:36;;;;;;;7.33;4.53;;;11.90;99.90;;;;;;5014236;28;20508;-71
2023/04/20 15:49:03;;;;;;;11.70;6.27;;;12.00;99.90;;;;;;5014648;28;20822;-71
2023/04/20 15:51:30;;;;;;;7.77;5.20;;;11.90;99.90;;;;;;5013821;28;20640;-70
2023/04/20 15:53:57;;;;;;;9.60;5.73;;;11.90;99.90;;;;;;5013160;28;20968;-70
2023/04/20 15:56:24;;;;;;;6.80;5.80;;;11.90;99.90;;;;;;5013488;28;20487;-70
2023/04/20 15:58:51;;;;;;;10.53;6.47;;;11.80;99.90;;;;;;5013212;28;20781;-70
2023/04/20 16:01:18;;;;;;;5.97;5.23;;;11.90;99.90;;;;;;5013288;28;20462;-70
2023/04/20 16:03:48;;;;;;;8.50;6.40;;;11.90;99.90;;;;;;5013196;28;20549;-70
2023/04/20 16:06:15;;;;;;;6.10;5.20;;;12.00;99.90;;;;;;5013481;28;20227;-70
2023/04/20 16:08:42;;;;;;;4.33;4.07;;;12.00;99.90;;;;;;5013426;28;20468;-70
2023/04/20 16:11:09;;;;;;;7.23;6.50;;;12.00;99.90;;;;;;5013391;28;20501;-70
2023/04/20 16:13:36;;;;;;;17.67;6.07;;;11.90;99.90;;;;;;5012476;28;20954;-70
2023/04/20 16:16:02;;;;;;;5.30;4.20;;;11.90;99.90;;;;;;5012989;28;20984;-70
2023/04/20 16:18:30;;;;;;;4.75;4.30;;;11.90;99.90;;;;;;5012851;28;20524;-69
2023/04/20 16:20:59;;;;;;;6.10;5.53;;;11.80;99.90;;;;;;5012883;28;20199;-70
2023/04/20 16:23:25;;;;;;;4.78;4.35;;;11.70;99.90;;;;;;5011157;28;20223;-70
2023/04/20 16:25:52;;;;;;;10.60;5.70;;;11.60;99.90;;;;;;5012916;28;20227;-71
2023/04/20 16:28:19;;;;;;;4.72;4.15;;;11.60;99.90;;;;;;5013322;28;20215;-70
2023/04/20 16:30:46;;;;;;;5.13;4.60;;;11.60;99.90;;;;;;5012567;28;20234;-70
2023/04/20 16:33:12;;;;;;;5.00;4.70;;;11.60;99.90;;;;;;5008702;28;20208;-71
2023/04/20 16:35:39;;;;;;;4.70;4.25;;;11.60;99.90;;;;;;5012062;28;20234;-71
2023/04/20 16:38:08;;;;;;;6.50;4.32;;;11.60;99.90;;;;;;5012748;28;20249;-71
2023/04/20 16:40:35;;;;;;;16.67;6.03;;;11.60;99.90;;;;;;5012629;28;20237;-71
2023/04/20 16:43:02;;;;;;;5.97;5.10;;;11.60;99.90;;;;;;5012918;28;20222;-70
2023/04/20 16:45:29;;;;;;;5.40;3.83;;;11.50;99.90;;;;;;5011747;28;20743;-71
2023/04/20 16:47:57;;;;;;;3.95;3.60;;;11.50;99.90;;;;;;5012698;28;20212;-70
2023/04/20 16:50:23;;;;;;;3.55;3.35;;;11.40;99.90;;;;;;5013802;28;20230;-70
2023/04/20 16:52:50;;;;;;;5.35;3.40;;;11.40;99.90;;;;;;5014677;28;20207;-71
2023/04/20 16:55:18;;;;;;;4.53;4.10;;;11.40;99.90;;;;;;5014009;28;20586;-72